Date,TemperatureHighF,TemperatureAvgF,TemperatureLowF,DewpointHighF,DewpointAvgF,DewpointLowF,HumidityHigh,HumidityAvg,HumidityLow,PressureMaxIn,PressureMinIn,WindSpeedMaxMPH,WindSpeedAvgMPH,GustSpeedMaxMPH,PrecipitationSumIn
2013-1-1,40,33,28,34,30,26,95,88,76,30.50,30.35,9,0,9,0.01
2013-1-2,45,36,30,32,26,22,89,67,52,30.35,30.18,5,0,6,0.00
2013-1-3,45,35,29,34,26,21,94,70,47,30.20,30.09,10,0,10,0.25
2013-1-4,48,42,35,44,40,34,96,92,79,30.30,30.16,10,1,10,0.06
2013-1-5,44,41,39,39,36,35,95,84,74,30.20,30.10,10,0,10,0.12
2013-1-6,44,41,39,40,39,37,95,92,85,30.18,29.98,12,1,12,0.18
2013-1-7,49,45,39,46,43,37,96,92,86,30.15,29.80,16,2,16,0.17
2013-1-8,51,46,40,48,44,38,97,93,87,30.15,29.72,25,3,25,0.48
2013-1-9,49,38,33,47,37,32,96,95,91,29.94,29.66,22,1,23,1.10
2013-1-10,36,33,29,35,32,27,100,95,88,30.11,29.93,7,0,7,0.23
2013-1-11,32,28,24,30,26,22,95,93,87,30.33,30.10,6,0,6,0.01
2013-1-12,34,28,24,30,24,22,95,87,71,30.45,30.32,12,0,12,0.03
2013-1-13,34,28,23,28,25,21,94,87,72,30.50,30.44,5,0,5,0.01
2013-1-14,34,32,30,33,29,28,96,88,77,30.57,30.47,6,0,6,0.00
2013-1-15,42,35,31,34,31,28,94,85,71,30.70,30.57,6,0,6,0.12
2013-1-16,41,33,28,35,30,26,100,89,77,30.67,30.52,7,0,7,0.07
2013-1-17,36,31,27,34,30,25,96,95,93,30.53,30.30,5,0,5,0.01
2013-1-18,35,32,29,34,30,28,97,96,96,30.35,30.26,5,0,5,0.01
2013-1-19,34,32,30,32,30,28,97,96,96,30.39,30.34,6,0,6,0.00
2013-1-20,39,33,30,38,32,29,97,96,96,30.40,30.26,5,0,6,0.01
2013-1-21,33,31,28,32,30,27,97,96,95,30.28,30.13,5,0,5,0.01
2013-1-22,38,33,28,37,32,27,97,95,81,30.15,29.91,3,0,3,0.00
2013-1-23,41,39,36,40,35,28,96,88,61,30.13,29.84,10,0,11,0.31
2013-1-24,44,41,39,40,38,36,96,90,77,30.20,30.05,6,0,7,0.16
2013-1-25,48,44,40,44,42,38,97,93,86,30.06,29.92,10,0,10,0.12
2013-1-26,42,40,39,41,38,37,96,93,90,30.03,29.88,11,0,11,0.35
2013-1-27,41,39,38,38,37,36,96,93,88,30.05,29.98,12,1,12,0.13
2013-1-28,41,39,38,40,38,37,96,96,95,30.09,30.00,7,0,9,0.54
2013-1-29,45,43,40,44,42,39,100,97,96,30.33,30.08,13,0,13,0.61
2013-1-30,46,45,43,46,44,42,97,97,96,30.38,30.31,9,0,9,0.17
2013-1-31,47,46,44,45,44,44,97,95,89,30.39,30.29,16,0,16,0.10
2013-2-1,50,44,40,45,42,39,97,94,80,30.40,30.32,10,0,10,0.04
2013-2-2,41,39,37,40,38,36,97,96,96,30.38,30.25,9,0,9,0.00
2013-2-3,46,42,37,43,41,36,97,95,88,30.31,30.20,9,0,9,0.06
2013-2-4,49,45,42,43,42,41,96,89,76,30.20,29.88,7,0,7,0.01
2013-2-5,49,45,42,43,42,40,96,89,76,29.92,29.83,17,2,17,0.11
2013-2-6,48,44,42,41,40,38,94,86,73,30.04,29.78,17,2,17,0.08
2013-2-7,48,42,37,40,37,34,94,81,58,30.18,29.79,20,2,20,0.07
2013-2-8,44,39,32,38,35,31,96,87,72,30.30,30.18,6,0,6,0.00
2013-2-9,43,40,38,40,38,36,98,93,86,30.34,30.26,4,0,4,0.02
2013-2-10,47,39,31,39,36,30,97,89,66,30.37,30.31,11,0,11,0.00
2013-2-11,45,42,39,40,39,37,96,90,79,30.36,30.32,3,0,6,0.05
2013-2-12,48,45,42,45,43,39,96,93,87,30.40,30.28,16,1,16,0.02
2013-2-13,47,43,42,44,42,40,96,94,90,30.44,30.30,11,0,11,0.22
2013-2-14,46,44,41,44,42,40,96,93,86,30.55,30.48,3,0,10,0.09
2013-2-15,54,44,39,46,41,38,97,90,69,30.54,30.17,11,1,11,0.00
2013-2-16,50,43,38,44,41,37,100,93,74,30.19,30.10,14,1,14,0.29
2013-2-17,44,40,38,39,37,36,96,90,78,30.24,30.11,6,0,6,0.01
2013-2-18,44,40,36,38,36,34,94,87,75,30.11,29.76,10,0,10,0.00
2013-2-19,49,41,36,38,35,33,91,81,61,30.01,29.73,16,1,16,0.00
2013-2-20,42,39,36,38,36,34,95,90,82,30.04,29.99,12,0,12,0.10
2013-2-21,42,40,37,40,38,36,96,91,85,30.06,30.00,19,2,19,0.04
2013-2-22,45,41,37,41,38,33,97,89,77,30.04,29.68,26,4,26,0.06
2013-2-23,47,41,38,38,36,34,91,82,65,30.37,29.89,13,1,13,0.00
2013-2-24,45,43,39,38,36,34,87,78,67,30.37,29.94,18,2,18,0.00
2013-2-25,50,42,38,39,36,33,92,80,55,30.30,29.88,20,2,20,0.07
2013-2-26,46,41,35,37,34,32,92,76,60,30.34,30.19,13,1,13,0.01
2013-2-27,47,42,39,42,40,37,95,90,73,30.30,30.20,10,0,10,0.32
2013-2-28,50,45,41,49,44,40,100,96,95,30.32,30.18,15,1,15,0.22
2013-3-1,55,52,49,50,49,48,97,90,82,30.36,30.27,19,2,19,0.06
2013-3-2,54,48,37,50,44,35,99,87,77,30.27,30.07,21,2,21,0.43
2013-3-3,48,40,34,39,34,31,96,82,55,30.30,30.19,15,1,15,0.01
2013-3-4,53,41,30,34,29,25,94,67,37,30.30,29.92,10,0,10,0.00
2013-3-5,50,45,41,39,32,24,91,63,45,29.93,29.72,10,1,10,0.00
2013-3-6,42,40,39,40,38,37,96,93,87,29.90,29.57,15,3,15,0.49
2013-3-7,49,42,38,43,40,37,96,92,70,30.09,29.89,6,0,6,0.24
2013-3-8,51,41,32,42,37,31,96,87,68,30.24,30.07,14,1,14,0.02
2013-3-9,52,42,32,42,36,30,96,81,57,30.49,30.24,10,0,10,0.00
2013-3-10,46,42,37,41,38,34,94,87,73,30.49,30.42,4,0,6,0.01
2013-3-11,50,45,40,45,41,39,100,88,70,30.44,30.15,7,0,7,0.03
2013-3-12,53,50,47,49,47,44,96,90,78,30.15,30.05,19,5,19,0.02
2013-3-13,51,50,49,49,48,46,96,94,90,30.20,30.08,20,3,20,0.15
2013-3-14,50,49,48,48,47,46,96,93,89,30.08,30.02,11,0,11,0.00
2013-3-15,56,50,47,49,47,44,96,89,76,30.20,30.12,3,1,12,0.00
2013-3-16,48,44,36,44,41,34,92,87,72,30.13,29.88,7,2,19,0.02
2013-3-17,46,40,36,38,35,33,94,84,60,30.19,29.97,6,1,16,0.06
2013-3-18,49,42,37,40,36,33,93,79,60,30.24,30.10,11,1,18,0.01
2013-3-19,55,42,33,40,34,27,93,78,35,30.23,29.59,15,1,16,0.29
2013-3-20,49,44,34,48,40,32,99,86,70,30.00,29.38,27,3,27,0.64
2013-3-21,45,38,35,37,34,33,94,87,69,30.22,30.00,14,1,14,0.05
2013-3-22,45,37,33,36,31,26,95,80,49,30.38,30.21,11,1,11,0.09
2013-3-23,49,39,31,32,28,22,92,68,39,30.40,30.30,12,0,12,0.00
2013-3-24,53,42,31,33,29,25,88,62,35,30.30,30.13,7,0,7,0.00
2013-3-25,60,49,38,34,29,26,66,47,30,30.14,29.94,12,1,12,0.00
2013-3-26,59,50,43,41,37,34,74,62,42,30.02,29.96,11,0,11,0.00
2013-3-27,57,49,43,47,41,35,89,76,55,29.99,29.93,7,0,9,0.02
2013-3-28,61,51,44,49,45,42,95,81,57,30.15,29.99,10,0,10,0.04
2013-3-29,63,52,44,48,44,41,91,76,51,30.24,30.14,11,1,11,0.00
2013-3-30,66,53,41,47,44,39,94,73,46,30.25,30.07,15,2,16,0.00
2013-3-31,70,55,44,48,44,40,89,67,42,30.07,29.91,12,2,12,0.00
2013-4-1,60,52,46,50,46,43,93,82,66,30.15,29.96,10,1,11,0.00
2013-4-2,54,50,47,47,45,44,91,83,75,30.19,30.15,11,0,12,0.00
2013-4-3,61,52,45,48,45,42,95,77,50,30.18,29.95,9,0,9,0.00
2013-4-4,54,51,48,52,48,45,95,90,81,29.94,29.64,14,1,16,0.34
2013-4-5,55,51,47,50,48,45,95,90,79,29.86,29.71,18,2,21,0.39
2013-4-6,50,46,44,46,43,41,95,89,79,29.92,29.69,19,3,19,0.41
2013-4-7,44,42,38,42,40,37,95,94,90,29.89,29.50,14,1,14,0.92
2013-4-8,52,46,41,46,42,40,96,89,71,30.27,29.89,9,0,9,0.03
2013-4-9,52,48,42,44,42,39,93,81,63,30.35,30.18,9,0,9,0.00
2013-4-10,55,50,46,51,45,42,95,84,71,30.25,29.93,17,1,17,0.12
2013-4-11,53,47,42,43,39,36,93,77,54,30.30,30.19,18,1,18,0.08
2013-4-12,44,42,39,42,38,35,95,87,75,30.19,29.67,17,2,17,0.16
2013-4-13,47,40,34,42,38,33,95,89,80,30.00,29.75,17,1,17,0.48
2013-4-14,53,44,38,41,37,33,96,79,50,30.01,29.92,13,1,13,0.07
2013-4-15,54,44,38,41,38,36,95,81,52,30.18,29.95,15,1,15,0.00
2013-4-16,53,44,34,43,37,32,95,78,45,30.40,30.18,12,0,12,0.16
2013-4-17,58,47,37,42,37,30,91,71,35,30.45,30.39,13,1,13,0.00
2013-4-18,49,46,42,46,42,37,94,87,77,30.45,30.21,11,0,11,0.16
2013-4-19,52,49,47,51,48,45,100,95,93,30.20,30.06,15,1,15,0.35
2013-4-20,52,48,45,48,45,43,96,91,78,30.28,30.19,13,0,13,0.31
2013-4-21,53,46,41,46,42,37,96,87,64,30.37,30.23,13,1,13,0.27
2013-4-22,59,48,37,42,35,25,95,64,31,30.52,30.37,16,2,16,0.00
2013-4-23,62,50,37,40,34,26,90,59,27,30.42,30.25,16,2,17,0.00
2013-4-24,70,56,39,42,36,28,91,54,22,30.32,30.06,17,1,17,0.00
2013-4-25,72,58,43,44,38,30,78,50,28,30.13,30.03,10,0,10,0.00
2013-4-26,64,54,44,50,46,42,95,74,54,30.25,30.13,11,0,11,0.00
2013-4-27,54,52,50,47,44,39,89,75,59,30.21,30.14,16,1,16,0.00
2013-4-28,56,49,45,48,44,40,94,83,60,30.22,29.94,17,1,17,0.21
2013-4-29,55,47,41,45,37,30,95,71,39,30.16,29.90,22,2,22,0.14
2013-4-30,54,44,35,38,34,26,94,69,36,30.44,30.16,17,1,17,0.09
2013-5-1,62,50,35,38,34,26,88,58,27,30.58,30.44,15,1,15,0.00
2013-5-2,67,54,43,44,40,35,80,59,39,30.55,30.37,18,2,18,0.00
2013-5-3,70,57,44,50,44,40,86,64,44,30.39,30.23,18,2,18,0.00
2013-5-4,76,63,49,50,45,38,84,55,26,30.23,29.99,18,3,18,0.00
2013-5-5,81,67,52,50,45,40,73,47,23,29.99,29.77,15,2,15,0.00
2013-5-6,85,70,54,50,44,40,63,42,22,29.84,29.74,17,1,17,0.00
2013-5-7,72,59,50,54,50,46,92,73,49,30.00,29.81,13,0,13,0.00
2013-5-8,66,56,50,53,50,47,90,81,62,30.14,30.00,6,0,9,0.00
2013-5-9,71,58,49,56,50,47,94,78,44,30.22,30.11,11,0,11,0.00
2013-5-10,78,63,47,56,50,45,93,66,37,30.20,30.10,10,0,10,0.00
2013-5-11,79,65,55,55,49,43,80,59,36,30.16,29.98,11,0,11,0.00
2013-5-12,69,61,57,57,55,50,94,80,61,30.09,30.00,11,1,12,0.13
2013-5-13,61,55,48,56,50,40,94,83,62,30.18,29.92,20,1,20,0.24
2013-5-14,64,54,47,45,42,37,85,66,38,30.22,30.11,11,0,11,0.00
2013-5-15,65,53,45,50,45,40,93,76,43,30.12,30.02,6,0,10,0.04
2013-5-16,68,58,51,54,51,48,95,77,51,30.02,29.86,15,1,15,0.00
2013-5-17,61,56,52,51,48,45,91,78,59,30.05,29.94,13,1,13,0.02
2013-5-18,60,55,51,48,46,44,87,74,58,30.27,30.05,9,0,9,0.00
2013-5-19,65,56,51,51,48,46,88,76,55,30.40,30.27,15,1,15,0.00
2013-5-20,66,55,45,52,47,43,95,76,49,30.35,29.90,14,1,14,0.00
2013-5-21,55,49,45,49,45,43,94,87,71,29.90,29.78,14,0,14,0.40
2013-5-22,51,47,43,47,44,41,94,90,77,29.94,29.84,7,0,7,0.13
2013-5-23,57,48,44,46,44,42,95,84,59,30.01,29.92,13,0,13,0.05
2013-5-24,61,52,45,49,45,42,93,77,54,30.04,29.97,12,0,12,0.01
2013-5-25,62,54,49,48,46,43,90,75,51,30.04,29.97,10,0,10,0.01
2013-5-26,63,55,49,54,50,47,94,84,67,29.99,29.94,7,0,7,0.05
2013-5-27,58,54,49,55,51,47,94,90,83,29.96,29.71,11,0,11,0.18
2013-5-28,62,55,51,51,49,46,92,81,65,29.88,29.76,13,1,13,0.00
2013-5-29,58,52,49,51,48,46,94,87,72,29.97,29.68,12,0,12,0.08
2013-5-30,60,54,48,48,46,45,89,77,62,30.24,29.96,13,1,13,0.00
2013-5-31,68,57,50,48,46,41,88,69,41,30.34,30.24,11,0,11,0.00
2013-6-1,71,59,50,51,47,40,86,65,35,30.25,30.05,16,2,16,0.00
2013-6-2,70,60,52,51,49,47,90,69,46,30.08,30.04,16,1,16,0.02
2013-6-3,72,60,50,54,50,47,93,73,46,30.11,30.06,12,0,12,0.00
2013-6-4,78,64,49,56,51,46,92,65,39,30.12,30.02,14,2,14,0.00
2013-6-5,76,64,53,58,52,44,78,65,50,30.08,30.02,16,2,16,0.00
2013-6-6,78,65,52,56,49,41,90,61,30,30.05,30.00,12,1,12,0.00
2013-6-7,66,60,54,54,48,41,80,65,49,30.15,30.01,13,1,13,0.00
2013-6-8,68,58,51,52,48,46,82,70,55,30.18,30.10,13,1,13,0.00
2013-6-9,66,56,49,48,46,44,88,71,49,30.12,30.02,15,2,15,0.00
2013-6-10,69,58,46,49,46,41,90,67,37,30.04,29.88,15,1,15,0.00
2013-6-11,65,56,51,52,47,45,89,72,50,30.09,29.94,12,1,12,0.09
2013-6-12,67,57,51,50,47,43,88,69,47,30.14,30.09,12,1,12,0.00
2013-6-13,68,58,51,50,47,42,87,70,41,30.22,30.13,14,1,14,0.00
2013-6-14,66,58,53,49,48,46,83,71,53,30.23,30.05,12,0,12,0.00
2013-6-15,73,62,49,55,52,46,94,70,49,30.05,29.92,14,1,14,0.00
2013-6-16,72,63,54,58,53,50,88,71,56,30.08,29.98,11,0,11,0.00
2013-6-17,75,64,55,54,51,45,89,66,38,30.09,29.89,13,0,13,0.01
2013-6-18,74,62,55,53,49,41,90,65,34,29.97,29.87,13,0,13,0.00
2013-6-19,64,58,54,54,51,48,87,77,61,30.01,29.91,7,0,7,0.00
2013-6-20,58,54,52,54,51,48,95,88,73,30.11,29.95,12,0,12,0.51
2013-6-21,68,58,51,54,51,50,96,80,54,30.16,30.10,6,0,6,0.01
2013-6-22,76,64,50,55,52,47,95,67,40,30.12,29.84,10,0,10,0.00
2013-6-23,70,64,58,61,57,52,93,78,68,29.84,29.59,7,0,7,0.12
2013-6-24,67,60,55,60,55,53,95,82,63,29.69,29.57,14,0,16,0.10
2013-6-25,73,61,55,58,55,50,95,83,48,29.85,29.67,17,0,17,0.43
2013-6-26,70,62,55,60,56,53,96,82,62,30.07,29.84,13,0,13,0.05
2013-6-27,70,64,59,62,59,55,94,85,74,30.19,30.04,7,0,7,0.08
2013-6-28,86,72,60,66,61,58,94,71,41,30.19,30.03,13,1,13,0.00
2013-6-29,85,72,63,65,60,55,86,68,47,30.09,29.98,11,1,11,0.00
2013-6-30,91,76,62,67,61,54,79,61,39,30.00,29.84,12,2,12,0.00
2013-7-1,88,75,64,65,60,56,77,60,42,30.01,29.90,10,1,13,0.00
2013-7-2,80,69,59,62,55,49,87,63,38,30.09,30.01,16,1,16,0.00
2013-7-3,77,66,57,55,50,43,73,59,33,30.15,30.04,16,2,16,0.00
2013-7-4,71,61,55,54,52,49,84,72,54,30.12,30.02,10,0,10,0.00
2013-7-5,74,63,53,56,54,50,90,72,51,30.03,29.95,13,0,13,0.00
2013-7-6,78,66,54,57,54,51,92,68,42,29.97,29.86,14,1,15,0.00
2013-7-7,74,65,56,60,56,51,88,75,59,29.94,29.88,13,0,13,0.00
2013-7-8,79,66,55,59,55,52,89,71,44,30.09,29.93,11,1,11,0.00
2013-7-9,83,70,58,59,55,51,85,62,40,30.10,29.99,17,2,17,0.00
2013-7-10,66,60,56,56,53,50,83,76,68,30.05,30.01,10,0,10,0.00
2013-7-11,70,59,54,52,48,46,87,69,49,30.08,29.99,15,1,15,0.00
2013-7-12,66,58,50,53,49,45,84,74,59,30.10,30.01,10,0,11,0.00
2013-7-13,75,63,48,52,49,44,86,62,38,30.20,30.10,16,1,16,0.00
2013-7-14,80,66,51,53,48,42,85,56,27,30.13,29.98,15,2,15,0.00
2013-7-15,80,67,52,56,50,45,86,57,35,30.04,29.89,18,3,19,0.00
2013-7-16,86,72,60,56,51,46,66,49,30,29.90,29.79,15,2,15,0.00
2013-7-17,70,64,59,58,56,51,86,73,51,30.18,29.87,17,1,17,0.01
2013-7-18,77,65,57,59,55,53,89,72,52,30.22,30.12,12,1,12,0.00
2013-7-19,79,65,53,61,56,51,94,75,50,30.16,30.03,13,1,13,0.00
2013-7-20,78,63,54,60,56,51,94,79,54,30.08,29.95,10,0,10,0.00
2013-7-21,76,63,56,60,56,53,93,80,58,29.98,29.90,7,0,7,0.00
2013-7-22,78,65,56,60,56,54,94,76,47,30.06,29.93,9,0,9,0.00
2013-7-23,84,69,55,59,55,51,89,64,35,30.06,29.96,14,2,16,0.00
2013-7-24,83,70,57,56,52,47,80,56,33,30.04,29.98,15,1,15,0.00
2013-7-25,84,69,54,54,51,46,80,55,28,30.09,30.02,14,2,14,0.00
2013-7-26,83,68,54,54,50,41,83,56,25,30.14,30.07,16,2,16,0.00
2013-7-27,77,65,53,54,51,47,84,62,39,30.15,29.99,12,1,12,0.00
2013-7-28,68,60,54,56,52,50,90,77,64,30.02,29.95,12,0,12,0.00
2013-7-29,76,63,56,56,54,51,85,71,49,30.00,29.94,10,0,10,0.00
2013-7-30,76,65,56,58,55,52,88,72,50,30.12,30.00,9,0,9,0.00
2013-7-31,69,61,56,60,56,53,93,85,70,30.12,29.99,7,0,7,0.00
2013-8-1,65,60,54,56,54,52,92,82,72,30.06,30.02,11,0,11,0.00
2013-8-2,60,58,56,58,56,53,95,91,82,30.13,30.05,12,0,12,0.25
2013-8-3,74,63,58,61,58,55,96,83,60,30.13,30.05,10,0,10,0.00
2013-8-4,80,67,55,62,58,53,92,73,52,30.06,29.94,13,1,13,0.00
2013-8-5,83,70,57,60,56,53,90,64,36,30.01,29.92,11,1,13,0.00
2013-8-6,85,70,55,59,54,49,85,58,29,29.99,29.90,10,1,11,0.00
2013-8-7,84,70,56,59,55,51,87,61,34,30.00,29.93,13,1,13,0.00
2013-8-8,82,67,58,61,56,52,89,69,46,30.02,29.93,11,0,12,0.00
2013-8-9,80,69,56,59,56,51,85,63,46,29.95,29.83,11,1,11,0.00
2013-8-10,78,66,59,63,60,56,93,80,56,30.00,29.87,10,0,10,0.09
2013-8-11,74,65,57,59,55,53,89,73,52,30.06,29.98,10,0,10,0.01
2013-8-12,77,65,57,58,55,53,88,72,49,30.07,30.00,12,0,12,0.00
2013-8-13,82,67,56,58,55,50,90,68,36,30.09,29.92,10,1,10,0.00
2013-8-14,79,67,58,61,58,54,90,74,47,29.96,29.90,6,0,9,0.01
2013-8-15,68,65,62,65,62,60,95,90,83,29.99,29.90,6,0,6,0.06
2013-8-16,80,70,61,64,60,48,96,74,34,30.00,29.93,10,0,10,0.01
2013-8-17,76,68,60,61,58,54,82,71,56,30.06,29.99,13,1,13,0.00
2013-8-18,78,66,60,60,56,52,86,71,53,30.12,30.06,17,1,17,0.00
2013-8-19,78,66,59,59,54,50,79,68,52,30.11,30.06,17,1,17,0.00
2013-8-20,74,64,55,57,52,49,85,66,49,30.16,30.07,17,2,17,0.00
2013-8-21,80,66,53,55,51,48,86,61,37,30.09,29.93,17,2,17,0.00
2013-8-22,83,70,57,57,54,50,79,58,36,29.94,29.79,12,1,12,0.00
2013-8-23,72,66,61,58,56,54,85,71,57,29.88,29.81,12,1,12,0.00
2013-8-24,73,64,58,58,55,52,91,73,51,29.91,29.85,13,1,13,0.00
2013-8-25,72,62,53,60,54,50,89,76,53,29.94,29.86,14,0,14,0.02
2013-8-26,74,64,59,62,57,51,92,79,49,29.95,29.85,15,0,15,0.04
2013-8-27,78,68,61,60,58,55,88,73,52,29.95,29.79,11,1,11,0.00
2013-8-28,79,68,60,64,60,56,95,77,53,29.88,29.82,7,0,7,0.18
2013-8-29,72,66,63,65,62,61,95,90,76,30.01,29.84,11,0,11,0.41
2013-8-30,77,67,60,62,57,52,93,73,43,30.15,30.01,12,1,12,0.00
2013-8-31,78,65,54,60,56,52,94,74,50,30.07,29.83,13,1,13,0.00
2013-9-1,78,68,58,60,58,55,93,72,51,29.88,29.79,8,0,9,0.00
2013-9-2,80,69,60,60,57,55,87,68,47,29.93,29.85,12,0,12,0.00
2013-9-3,72,64,60,63,59,57,95,86,62,30.02,29.92,7,0,7,0.06
2013-9-4,68,62,58,61,59,56,95,89,78,30.05,29.98,12,0,12,0.03
2013-9-5,67,61,58,61,58,56,96,90,79,30.04,29.92,14,1,14,0.60
2013-9-6,69,62,59,62,59,58,96,91,76,30.10,29.93,7,0,9,0.69
2013-9-7,72,64,60,61,59,57,93,85,65,30.10,30.01,11,0,11,0.00
2013-9-8,77,65,56,63,58,54,96,80,54,30.10,30.02,11,0,11,0.00
2013-9-9,76,64,56,63,58,55,96,83,60,30.06,29.97,13,1,13,0.01
2013-9-10,78,65,56,64,59,54,96,81,60,29.99,29.88,14,2,14,0.00
2013-9-11,93,74,59,66,59,56,92,63,32,29.93,29.86,11,1,11,0.00
2013-9-12,78,68,59,64,59,56,94,75,55,29.98,29.89,10,0,10,0.00
2013-9-13,64,62,59,60,59,57,95,90,84,29.96,29.87,4,0,4,0.00
2013-9-14,70,63,59,62,59,57,94,88,74,29.88,29.73,7,0,7,0.00
2013-9-15,63,60,57,61,58,56,96,94,90,29.81,29.70,9,0,9,0.24
2013-9-16,66,60,56,59,56,52,94,88,75,29.93,29.80,17,1,17,0.01
2013-9-17,61,57,54,54,52,51,93,85,72,29.93,29.87,7,0,7,0.01
2013-9-18,67,58,52,54,51,47,95,79,57,30.07,29.93,9,0,11,0.00
2013-9-19,79,62,48,53,49,45,96,64,37,30.04,29.75,6,0,7,0.00
2013-9-20,73,62,55,56,52,46,93,72,48,29.75,29.59,11,0,12,0.05
2013-9-21,67,60,55,56,54,52,92,81,60,29.71,29.64,11,0,11,0.01
2013-9-22,59,57,54,54,52,48,93,84,67,29.73,29.56,20,2,20,0.19
2013-9-23,60,55,50,54,51,47,93,86,75,29.96,29.72,20,2,20,0.31
2013-9-24,62,54,49,50,48,46,94,82,56,29.95,29.83,4,0,11,0.14
2013-9-25,57,51,48,50,47,45,94,87,68,30.03,29.85,20,1,20,0.06
2013-9-26,61,51,44,51,47,43,95,86,66,30.13,30.02,10,0,11,0.02
2013-9-27,56,53,48,52,49,46,92,87,82,30.12,29.84,13,1,15,0.05
2013-9-28,59,55,51,57,52,49,95,92,87,29.84,29.33,22,2,22,1.04
2013-9-29,54,52,51,51,49,46,93,88,80,29.55,29.16,21,3,21,0.54
2013-9-30,55,51,49,50,47,43,93,86,75,29.90,29.40,33,2,33,0.07
2013-10-1,57,50,47,48,46,43,94,84,64,30.10,29.89,17,1,17,0.14
2013-10-2,52,49,47,47,46,45,94,90,81,30.17,30.05,13,0,13,0.38
2013-10-3,56,50,46,48,46,43,94,86,70,30.45,30.17,10,0,10,0.00
2013-10-4,63,51,39,49,44,37,95,79,49,30.48,30.34,6,0,6,0.01
2013-10-5,69,56,47,51,46,43,92,71,48,30.35,30.12,11,0,11,0.00
2013-10-6,72,58,47,52,48,43,98,72,37,30.12,29.88,9,0,10,0.02
2013-10-7,57,53,51,51,49,45,93,85,68,30.00,29.88,13,1,13,0.09
2013-10-8,53,50,45,48,45,41,92,85,69,30.07,29.96,16,1,17,0.16
2013-10-9,56,48,38,46,42,36,94,82,61,30.13,29.95,9,0,9,0.00
2013-10-10,57,50,45,50,46,43,93,86,68,30.07,29.94,7,0,7,0.01
2013-10-11,53,50,47,49,47,45,94,91,83,30.14,30.06,5,0,5,0.02
2013-10-12,55,49,46,49,46,44,95,90,77,30.21,30.06,14,1,14,0.08
2013-10-13,54,48,43,47,44,41,95,89,73,30.36,30.21,7,0,7,0.01
2013-10-14,57,47,38,48,43,36,95,86,64,30.43,30.36,10,0,10,0.01
2013-10-15,59,50,41,50,45,39,100,85,68,30.39,30.17,9,0,9,0.01
2013-10-16,53,49,45,48,46,43,94,90,83,30.20,30.14,11,0,11,0.00
2013-10-17,56,49,46,49,46,44,94,90,76,30.27,30.20,5,0,5,0.00
2013-10-18,58,48,41,51,45,40,95,90,76,30.25,30.14,7,0,7,0.01
2013-10-19,49,45,42,47,44,41,95,94,92,30.19,30.14,6,0,6,0.01
2013-10-20,49,46,45,47,44,43,95,94,91,30.20,30.15,6,0,6,0.01
2013-10-21,50,47,45,48,45,43,95,94,91,30.17,30.10,7,0,7,0.01
2013-10-22,56,48,45,51,46,43,96,93,84,30.12,30.03,6,0,6,0.01
2013-10-23,60,48,42,53,46,41,96,91,76,30.05,29.98,5,0,5,0.01
2013-10-24,50,46,42,49,44,41,95,94,92,30.12,30.01,5,0,5,0.01
2013-10-25,50,47,45,48,46,43,95,94,90,30.32,30.12,4,0,4,0.02
2013-10-26,52,48,46,47,45,44,95,89,80,30.33,30.19,13,0,13,0.00
2013-10-27,56,48,44,49,45,41,95,89,75,30.20,29.90,18,1,18,0.13
2013-10-28,55,49,43,43,38,34,94,68,48,29.95,29.89,22,3,22,0.00
2013-10-29,55,45,35,41,37,33,94,76,50,30.03,29.94,5,0,5,0.00
2013-10-30,54,46,38,47,40,35,90,80,70,30.12,30.03,11,0,11,0.01
2013-10-31,52,50,48,49,47,43,94,89,76,30.26,30.09,17,0,17,0.00
2013-11-1,58,53,49,51,49,47,94,87,72,30.27,29.83,5,0,5,0.00
2013-11-2,53,48,43,49,45,40,94,88,78,29.87,29.47,32,2,37,0.40
2013-11-3,50,43,39,42,39,36,93,86,64,30.11,29.87,9,0,9,0.00
2013-11-4,48,41,35,41,36,33,94,83,59,30.19,30.05,6,0,6,0.01
2013-11-5,51,45,41,48,43,39,95,93,87,30.26,30.01,11,0,11,0.01
2013-11-6,50,46,42,46,43,41,95,91,84,30.32,30.02,4,0,7,0.01
2013-11-7,49,47,46,48,46,44,99,93,85,30.02,29.71,20,2,21,0.76
2013-11-8,51,47,43,45,43,41,93,87,78,30.15,29.96,9,0,9,0.00
2013-11-9,50,45,39,44,42,37,94,89,75,30.15,30.07,6,0,6,0.07
2013-11-10,47,45,43,45,43,41,95,93,89,30.15,30.09,12,1,12,0.04
2013-11-11,58,50,42,49,43,40,94,80,63,30.16,29.99,11,0,11,0.00
2013-11-12,57,52,48,53,48,42,96,88,70,30.35,30.02,10,0,10,0.13
2013-11-13,54,51,48,49,48,46,93,89,80,30.43,30.30,13,0,13,0.00
2013-11-14,48,46,43,47,44,42,96,93,90,30.30,30.05,8,0,8,0.13
2013-11-15,46,44,42,45,42,40,95,93,88,30.06,29.33,22,2,22,0.39
2013-11-16,46,43,39,42,39,37,95,86,73,29.76,29.34,12,0,13,0.01
2013-11-17,50,46,43,47,43,38,93,88,81,29.89,29.76,20,3,20,0.00
2013-11-18,50,48,46,49,46,44,95,94,89,29.89,29.55,12,0,13,0.61
2013-11-19,52,42,36,50,37,24,95,81,54,30.07,29.54,17,2,17,0.16
2013-11-20,41,35,30,31,27,24,88,73,52,30.51,30.07,14,1,17,0.00
2013-11-21,42,33,28,29,26,23,89,75,47,30.67,30.51,10,1,10,0.00
2013-11-22,44,35,28,32,28,25,88,77,52,30.65,30.45,11,1,11,0.00
2013-11-23,50,40,33,36,31,27,85,73,47,30.45,30.20,13,1,13,0.00
2013-11-24,51,41,35,41,36,32,92,83,64,30.25,30.16,9,0,9,0.00
2013-11-25,54,43,36,41,36,30,92,74,55,30.32,30.25,4,0,4,0.00
2013-11-26,53,43,35,41,37,34,95,80,54,30.27,30.10,5,0,5,0.00
2013-11-27,54,46,41,43,38,34,85,73,62,30.10,29.96,11,0,11,0.00
2013-11-28,51,43,36,43,38,34,92,84,65,30.18,30.02,4,0,4,0.00
2013-11-29,46,44,40,44,41,37,94,90,85,30.31,30.17,6,0,6,0.00
2013-11-30,49,47,45,46,44,42,94,88,80,30.32,30.08,14,1,14,0.09
2013-12-1,52,49,40,50,46,37,95,90,84,30.08,29.73,18,2,18,0.03
2013-12-2,42,38,35,37,34,32,94,89,71,30.05,29.80,10,0,11,0.10
2013-12-3,37,33,28,34,26,23,94,77,58,30.31,30.05,16,2,16,0.00
2013-12-4,36,29,24,28,24,21,93,82,66,30.35,30.29,3,0,5,0.00
2013-12-5,31,27,23,23,20,15,90,78,61,30.33,30.20,6,0,6,0.00
2013-12-6,31,24,20,16,12,7,77,58,39,30.25,30.15,7,0,12,0.00
2013-12-7,27,21,17,10,6,1,72,53,34,30.44,30.24,12,1,12,0.00
2013-12-8,31,24,16,18,14,10,78,68,54,30.58,30.42,5,0,5,0.00
2013-12-9,31,27,21,25,19,15,81,73,63,30.59,30.49,3,0,3,0.00
2013-12-10,37,34,31,32,30,24,90,84,76,30.50,30.42,5,0,5,0.00
2013-12-11,39,34,30,33,31,27,92,86,76,30.42,30.16,2,0,5,0.00
2013-12-12,41,37,32,40,35,31,95,91,75,30.17,30.05,11,0,11,0.16
2013-12-13,46,44,41,44,42,40,95,95,94,30.41,30.13,5,0,11,0.02
2013-12-14,47,45,43,44,42,41,95,91,86,30.44,30.32,12,0,12,0.00
2013-12-15,48,47,45,47,45,43,95,94,87,30.45,30.31,14,0,14,0.19
2013-12-16,46,42,37,44,41,36,95,94,91,30.49,30.26,5,0,5,0.01
2013-12-17,43,40,37,41,38,36,96,95,94,30.27,30.11,8,0,8,0.00
2013-12-18,42,40,34,40,36,31,95,88,72,30.15,30.02,14,1,14,0.08
2013-12-19,37,32,28,32,27,24,92,81,61,30.34,30.14,15,0,15,0.00
2013-12-20,40,35,30,39,32,27,100,92,83,30.20,29.72,27,1,27,0.38
2013-12-21,43,40,37,42,39,36,95,95,95,30.16,29.84,6,0,6,0.14
2013-12-22,48,46,43,47,44,42,96,96,95,30.29,30.16,13,0,13,0.38
2013-12-23,51,46,41,48,44,39,96,94,87,30.51,30.12,21,2,21,0.16
2013-12-24,45,40,33,41,37,32,95,91,78,30.62,30.51,7,0,7,0.01
2013-12-25,39,33,29,37,32,28,95,94,93,30.53,30.40,5,0,5,0.00
2013-12-26,43,37,33,40,36,31,95,93,88,30.41,30.20,4,0,4,0.01
2013-12-27,43,39,32,42,37,30,96,95,89,30.37,30.11,14,0,14,0.04
2013-12-28,45,42,35,43,40,34,96,94,89,30.52,30.37,6,0,6,0.00
2013-12-29,41,38,35,40,37,34,96,95,95,30.48,30.31,2,0,4,0.02
2013-12-30,42,39,36,41,38,35,100,95,94,30.32,30.13,10,0,10,0.01
2013-12-31,44,42,39,43,41,38,100,94,91,30.38,30.19,9,0,9,0.00
2014-1-1,43,39,34,41,38,32,96,94,92,30.41,30.24,4,0,5,0.02
2014-1-2,48,44,40,44,41,39,95,92,82,30.25,29.89,16,1,16,0.28